KMKT/MKT METAR and TAF weather

Enter ICAO airport designator
Station Type Date Time Source
KMKT METAR 2020/07/09 06:56 UTC NOAA

KMKT 090656Z AUTO 20005KT 10SM CLR 24/23 A2979 RMK AO2 SLP081 T02440228


Station Type Date Time Source
KMKT Decoded METAR 2020/07/09 06:56 UTC NOAA

Mankato, Mankato Regional Airport, MN, United States (KMKT) 44-13N 093-55W
Jul 09, 2020 - 02:56 AM EDT / 2020.07.09 0656 UTC
Wind: from the SSW (200 degrees) at 6 MPH (5 KT):0
Visibility: 10 mile(s):0
Sky conditions: clear
Temperature: 75.9 F (24.4 C)
Dew Point: 73.0 F (22.8 C)
Relative Humidity: 90%
Pressure (altimeter): 29.79 in. Hg (1008 hPa)
ob: KMKT 090656Z AUTO 20005KT 10SM CLR 24/23 A2979 RMK AO2 SLP081 T02440228
cycle: 7

Station Type Date Time Source
KMKT TAF 2020/07/09 06:21 UTC NOAA

TAF KMKT 090520Z 0906/1006 18006KT P6SM FEW050
FM091200 15004KT P6SM BKN100
FM091500 08006KT P6SM BKN100 PROB30 0916/0920 4SM -TSRA BKN050CB

Example: see airport list